sensor_id;sensor_type;location;lat;lon;timestamp;pressure;altitude;pressure_sealevel;temperature;humidity
28701;BME280;15877;52.344;16.790;2023-03-25T00:00:50;99500.75;;;11.75;78.11
28701;BME280;15877;52.344;16.790;2023-03-25T00:03:25;99492.58;;;11.59;78.98
28701;BME280;15877;52.344;16.790;2023-03-25T00:05:58;99484.13;;;11.71;78.48
28701;BME280;15877;52.344;16.790;2023-03-25T00:08:31;99477.37;;;11.72;78.16
28701;BME280;15877;52.344;16.790;2023-03-25T00:11:05;99475.14;;;11.68;78.21
28701;BME280;15877;52.344;16.790;2023-03-25T00:13:40;99477.19;;;11.63;78.38
28701;BME280;15877;52.344;16.790;2023-03-25T00:16:13;99477.30;;;11.67;77.94
28701;BME280;15877;52.344;16.790;2023-03-25T00:18:46;99472.02;;;11.60;77.98
28701;BME280;15877;52.344;16.790;2023-03-25T00:21:20;99477.08;;;11.57;78.05
28701;BME280;15877;52.344;16.790;2023-03-25T00:23:53;99470.33;;;11.57;77.96
28701;BME280;15877;52.344;16.790;2023-03-25T00:26:26;99466.51;;;11.57;77.94
28701;BME280;15877;52.344;16.790;2023-03-25T00:29:00;99464.66;;;11.49;78.06
28701;BME280;15877;52.344;16.790;2023-03-25T00:31:32;99458.24;;;11.32;78.80
28701;BME280;15877;52.344;16.790;2023-03-25T00:34:05;99449.78;;;11.43;78.40
28701;BME280;15877;52.344;16.790;2023-03-25T00:36:39;99453.73;;;11.37;78.47
28701;BME280;15877;52.344;16.790;2023-03-25T00:39:11;99443.73;;;11.39;78.18
28701;BME280;15877;52.344;16.790;2023-03-25T00:41:46;99453.98;;;11.41;78.06
28701;BME280;15877;52.344;16.790;2023-03-25T00:44:19;99450.20;;;11.50;77.51
28701;BME280;15877;52.344;16.790;2023-03-25T00:46:52;99451.23;;;11.49;77.38
28701;BME280;15877;52.344;16.790;2023-03-25T00:49:25;99437.14;;;11.39;77.52
28701;BME280;15877;52.344;16.790;2023-03-25T00:51:59;99440.58;;;11.49;77.41
28701;BME280;15877;52.344;16.790;2023-03-25T00:54:32;99444.09;;;11.58;76.73
28701;BME280;15877;52.344;16.790;2023-03-25T00:57:05;99441.84;;;11.69;76.30
28701;BME280;15877;52.344;16.790;2023-03-25T00:59:37;99439.38;;;11.67;76.22
28701;BME280;15877;52.344;16.790;2023-03-25T01:02:10;99433.01;;;11.66;76.18
28701;BME280;15877;52.344;16.790;2023-03-25T01:04:43;99429.99;;;11.69;75.81
28701;BME280;15877;52.344;16.790;2023-03-25T01:07:17;99434.45;;;11.69;75.13
28701;BME280;15877;52.344;16.790;2023-03-25T01:09:50;99434.06;;;11.72;74.79
28701;BME280;15877;52.344;16.790;2023-03-25T01:12:23;99435.65;;;11.77;74.18
28701;BME280;15877;52.344;16.790;2023-03-25T01:14:55;99440.48;;;11.79;73.66
28701;BME280;15877;52.344;16.790;2023-03-25T01:17:28;99427.30;;;11.77;73.40
28701;BME280;15877;52.344;16.790;2023-03-25T01:20:02;99428.81;;;11.78;73.13
28701;BME280;15877;52.344;16.790;2023-03-25T01:22:39;99436.60;;;11.74;73.11
28701;BME280;15877;52.344;16.790;2023-03-25T01:25:11;99439.61;;;11.69;72.98
28701;BME280;15877;52.344;16.790;2023-03-25T01:27:44;99442.31;;;11.66;73.35
28701;BME280;15877;52.344;16.790;2023-03-25T01:30:17;99434.98;;;11.64;73.52
28701;BME280;15877;52.344;16.790;2023-03-25T01:32:49;99435.52;;;11.62;73.66
28701;BME280;15877;52.344;16.790;2023-03-25T01:35:22;99440.63;;;11.64;73.73
28701;BME280;15877;52.344;16.790;2023-03-25T01:37:55;99437.34;;;11.55;73.66
28701;BME280;15877;52.344;16.790;2023-03-25T01:40:27;99425.52;;;11.60;73.86
28701;BME280;15877;52.344;16.790;2023-03-25T01:43:00;99417.30;;;11.58;73.80
28701;BME280;15877;52.344;16.790;2023-03-25T01:45:33;99401.97;;;11.57;73.98
28701;BME280;15877;52.344;16.790;2023-03-25T01:48:08;99406.73;;;11.56;73.80
28701;BME280;15877;52.344;16.790;2023-03-25T01:50:46;99406.73;;;11.57;73.51
28701;BME280;15877;52.344;16.790;2023-03-25T01:53:21;99403.88;;;11.59;73.26
28701;BME280;15877;52.344;16.790;2023-03-25T01:55:54;99400.70;;;11.59;73.06
28701;BME280;15877;52.344;16.790;2023-03-25T01:58:29;99400.15;;;11.57;73.15
28701;BME280;15877;52.344;16.790;2023-03-25T02:01:03;99394.81;;;11.47;72.89
28701;BME280;15877;52.344;16.790;2023-03-25T02:03:36;99406.34;;;11.49;73.00
28701;BME280;15877;52.344;16.790;2023-03-25T02:06:13;99418.80;;;11.45;73.36
28701;BME280;15877;52.344;16.790;2023-03-25T02:08:47;99417.92;;;11.47;73.65
28701;BME280;15877;52.344;16.790;2023-03-25T02:11:21;99407.98;;;11.44;73.77
28701;BME280;15877;52.344;16.790;2023-03-25T02:14:03;99410.20;;;11.43;73.83
28701;BME280;15877;52.344;16.790;2023-03-25T02:16:45;99406.00;;;11.47;73.74
28701;BME280;15877;52.344;16.790;2023-03-25T02:19:45;99405.28;;;11.46;73.86
28701;BME280;15877;52.344;16.790;2023-03-25T02:22:44;99404.02;;;11.45;73.76
28701;BME280;15877;52.344;16.790;2023-03-25T02:28:28;99383.48;;;11.38;73.65
28701;BME280;15877;52.344;16.790;2023-03-25T02:31:45;99371.73;;;11.29;73.52
28701;BME280;15877;52.344;16.790;2023-03-25T02:35:05;99379.68;;;11.34;73.46
28701;BME280;15877;52.344;16.790;2023-03-25T02:40:56;99379.77;;;11.35;72.40
28701;BME280;15877;52.344;16.790;2023-03-25T02:43:40;99378.25;;;11.30;72.23
28701;BME280;15877;52.344;16.790;2023-03-25T02:46:17;99380.78;;;11.28;72.23
28701;BME280;15877;52.344;16.790;2023-03-25T02:48:55;99379.59;;;11.25;72.55
28701;BME280;15877;52.344;16.790;2023-03-25T02:51:35;99377.02;;;11.21;72.60
28701;BME280;15877;52.344;16.790;2023-03-25T02:54:10;99383.61;;;11.17;72.69
28701;BME280;15877;52.344;16.790;2023-03-25T02:56:45;99379.80;;;11.18;72.78
28701;BME280;15877;52.344;16.790;2023-03-25T02:59:20;99378.54;;;11.19;72.74
28701;BME280;15877;52.344;16.790;2023-03-25T03:01:55;99373.36;;;11.17;72.47
28701;BME280;15877;52.344;16.790;2023-03-25T03:04:31;99369.00;;;11.14;72.63
28701;BME280;15877;52.344;16.790;2023-03-25T03:07:04;99367.97;;;11.15;72.46
28701;BME280;15877;52.344;16.790;2023-03-25T03:09:41;99362.41;;;11.15;72.33
28701;BME280;15877;52.344;16.790;2023-03-25T03:12:27;99353.51;;;11.13;71.99
28701;BME280;15877;52.344;16.790;2023-03-25T03:15:16;99361.05;;;11.12;71.66
28701;BME280;15877;52.344;16.790;2023-03-25T03:18:00;99356.35;;;11.11;71.21
28701;BME280;15877;52.344;16.790;2023-03-25T03:20:40;99364.53;;;11.10;71.23
28701;BME280;15877;52.344;16.790;2023-03-25T03:23:23;99361.68;;;11.09;71.01
28701;BME280;15877;52.344;16.790;2023-03-25T03:26:02;99371.90;;;11.05;70.67
28701;BME280;15877;52.344;16.790;2023-03-25T03:28:41;99378.34;;;11.03;70.18
28701;BME280;15877;52.344;16.790;2023-03-25T03:31:21;99380.86;;;11.00;70.29
28701;BME280;15877;52.344;16.790;2023-03-25T03:34:22;99385.28;;;10.92;70.10
28701;BME280;15877;52.344;16.790;2023-03-25T03:36:58;99394.30;;;10.84;70.29
28701;BME280;15877;52.344;16.790;2023-03-25T03:39:33;99392.08;;;10.83;71.01
28701;BME280;15877;52.344;16.790;2023-03-25T03:42:12;99393.02;;;10.81;71.11
28701;BME280;15877;52.344;16.790;2023-03-25T03:44:51;99394.37;;;10.80;71.10
28701;BME280;15877;52.344;16.790;2023-03-25T03:47:28;99399.56;;;10.74;71.85
28701;BME280;15877;52.344;16.790;2023-03-25T03:50:05;99397.73;;;10.71;72.45
28701;BME280;15877;52.344;16.790;2023-03-25T03:52:42;99402.27;;;10.74;72.36
28701;BME280;15877;52.344;16.790;2023-03-25T03:55:21;99408.67;;;10.72;72.50
28701;BME280;15877;52.344;16.790;2023-03-25T03:57:58;99407.25;;;10.72;72.40
28701;BME280;15877;52.344;16.790;2023-03-25T04:00:37;99411.79;;;10.73;72.39
28701;BME280;15877;52.344;16.790;2023-03-25T04:03:16;99410.74;;;10.70;72.62
28701;BME280;15877;52.344;16.790;2023-03-25T04:05:59;99408.67;;;10.70;72.46
28701;BME280;15877;52.344;16.790;2023-03-25T04:08:39;99410.91;;;10.72;72.43
28701;BME280;15877;52.344;16.790;2023-03-25T04:11:18;99410.96;;;10.65;72.33
28701;BME280;15877;52.344;16.790;2023-03-25T04:13:55;99404.52;;;10.64;73.02
28701;BME280;15877;52.344;16.790;2023-03-25T04:16:30;99402.56;;;10.70;73.23
28701;BME280;15877;52.344;16.790;2023-03-25T04:19:06;99400.83;;;10.71;73.34
28701;BME280;15877;52.344;16.790;2023-03-25T04:21:39;99401.23;;;10.73;73.59
28701;BME280;15877;52.344;16.790;2023-03-25T04:24:13;99399.71;;;10.71;73.48
28701;BME280;15877;52.344;16.790;2023-03-25T04:26:49;99401.23;;;10.73;73.14
28701;BME280;15877;52.344;16.790;2023-03-25T04:29:23;99399.96;;;10.73;72.47
28701;BME280;15877;52.344;16.790;2023-03-25T04:31:56;99402.33;;;10.71;72.19
28701;BME280;15877;52.344;16.790;2023-03-25T04:34:29;99402.63;;;10.68;72.03
28701;BME280;15877;52.344;16.790;2023-03-25T04:37:03;99412.15;;;10.68;71.91
28701;BME280;15877;52.344;16.790;2023-03-25T04:39:35;99401.00;;;10.59;72.23
28701;BME280;15877;52.344;16.790;2023-03-25T04:42:10;99413.57;;;10.65;72.59
28701;BME280;15877;52.344;16.790;2023-03-25T04:44:46;99408.97;;;10.64;72.82
28701;BME280;15877;52.344;16.790;2023-03-25T04:47:22;99408.23;;;10.59;72.96
28701;BME280;15877;52.344;16.790;2023-03-25T04:49:55;99406.00;;;10.57;72.84
28701;BME280;15877;52.344;16.790;2023-03-25T04:52:28;99405.46;;;10.61;72.66
28701;BME280;15877;52.344;16.790;2023-03-25T04:55:01;99400.05;;;10.59;72.81
28701;BME280;15877;52.344;16.790;2023-03-25T04:57:35;99399.23;;;10.56;72.99
28701;BME280;15877;52.344;16.790;2023-03-25T05:00:10;99398.29;;;10.55;73.34
28701;BME280;15877;52.344;16.790;2023-03-25T05:02:46;99394.10;;;10.59;73.14
28701;BME280;15877;52.344;16.790;2023-03-25T05:05:21;99398.32;;;10.62;72.95
28701;BME280;15877;52.344;16.790;2023-03-25T05:07:55;99403.80;;;10.62;72.86
28701;BME280;15877;52.344;16.790;2023-03-25T05:10:32;99405.11;;;10.56;73.27
28701;BME280;15877;52.344;16.790;2023-03-25T05:13:07;99407.33;;;10.54;73.57
28701;BME280;15877;52.344;16.790;2023-03-25T05:15:40;99411.94;;;10.56;73.74
28701;BME280;15877;52.344;16.790;2023-03-25T05:18:15;99409.55;;;10.56;73.79
28701;BME280;15877;52.344;16.790;2023-03-25T05:20:48;99408.28;;;10.55;74.05
28701;BME280;15877;52.344;16.790;2023-03-25T05:23:21;99411.58;;;10.63;73.94
28701;BME280;15877;52.344;16.790;2023-03-25T05:25:55;99410.00;;;10.65;74.27
28701;BME280;15877;52.344;16.790;2023-03-25T05:28:27;99413.17;;;10.65;74.76
28701;BME280;15877;52.344;16.790;2023-03-25T05:31:03;99399.67;;;10.62;75.48
28701;BME280;15877;52.344;16.790;2023-03-25T05:33:39;99409.65;;;10.75;75.85
28701;BME280;15877;52.344;16.790;2023-03-25T05:36:13;99405.98;;;10.71;76.99
28701;BME280;15877;52.344;16.790;2023-03-25T05:38:54;99407.63;;;10.80;77.13
28701;BME280;15877;52.344;16.790;2023-03-25T05:41:29;99406.19;;;10.79;77.58
28701;BME280;15877;52.344;16.790;2023-03-25T05:44:04;99405.22;;;10.77;78.13
28701;BME280;15877;52.344;16.790;2023-03-25T05:46:36;99400.10;;;10.68;79.24
28701;BME280;15877;52.344;16.790;2023-03-25T05:49:09;99404.63;;;10.70;79.31
28701;BME280;15877;52.344;16.790;2023-03-25T05:51:42;99395.56;;;10.83;78.86
28701;BME280;15877;52.344;16.790;2023-03-25T05:54:15;99402.48;;;10.84;79.13
28701;BME280;15877;52.344;16.790;2023-03-25T05:56:48;99402.59;;;10.91;79.39
28701;BME280;15877;52.344;16.790;2023-03-25T05:59:21;99399.16;;;11.10;78.51
28701;BME280;15877;52.344;16.790;2023-03-25T06:01:53;99394.63;;;11.12;78.53
28701;BME280;15877;52.344;16.790;2023-03-25T06:04:26;99394.54;;;11.09;79.21
28701;BME280;15877;52.344;16.790;2023-03-25T06:06:59;99396.56;;;11.16;78.80
28701;BME280;15877;52.344;16.790;2023-03-25T06:09:34;99398.50;;;11.04;79.35
28701;BME280;15877;52.344;16.790;2023-03-25T06:12:07;99397.96;;;11.05;79.44
28701;BME280;15877;52.344;16.790;2023-03-25T06:14:39;99405.20;;;11.11;79.54
28701;BME280;15877;52.344;16.790;2023-03-25T06:17:18;99410.11;;;11.06;79.90
28701;BME280;15877;52.344;16.790;2023-03-25T06:19:52;99409.40;;;11.08;80.17
28701;BME280;15877;52.344;16.790;2023-03-25T06:22:24;99410.35;;;11.10;80.35
28701;BME280;15877;52.344;16.790;2023-03-25T06:24:57;99411.20;;;11.23;79.77
28701;BME280;15877;52.344;16.790;2023-03-25T06:27:34;99400.20;;;11.12;80.40
28701;BME280;15877;52.344;16.790;2023-03-25T06:30:13;99405.90;;;11.38;79.49
28701;BME280;15877;52.344;16.790;2023-03-25T06:32:47;99400.22;;;11.56;78.76
28701;BME280;15877;52.344;16.790;2023-03-25T06:35:23;99396.05;;;11.41;79.17
28701;BME280;15877;52.344;16.790;2023-03-25T06:37:55;99398.46;;;11.50;79.24
28701;BME280;15877;52.344;16.790;2023-03-25T06:40:32;99406.46;;;11.37;80.16
28701;BME280;15877;52.344;16.790;2023-03-25T06:43:05;99411.20;;;11.56;79.79
28701;BME280;15877;52.344;16.790;2023-03-25T06:45:41;99414.11;;;11.75;78.99
28701;BME280;15877;52.344;16.790;2023-03-25T06:48:37;99418.32;;;11.75;79.26
28701;BME280;15877;52.344;16.790;2023-03-25T06:51:10;99419.67;;;11.75;79.54
28701;BME280;15877;52.344;16.790;2023-03-25T06:53:42;99417.56;;;11.60;80.06
28701;BME280;15877;52.344;16.790;2023-03-25T06:56:17;99419.39;;;11.58;80.52
28701;BME280;15877;52.344;16.790;2023-03-25T06:58:49;99413.93;;;11.69;80.41
28701;BME280;15877;52.344;16.790;2023-03-25T07:01:22;99395.48;;;11.75;79.32
28701;BME280;15877;52.344;16.790;2023-03-25T07:03:55;99406.63;;;11.78;79.56
28701;BME280;15877;52.344;16.790;2023-03-25T07:06:27;99410.06;;;11.91;78.65
28701;BME280;15877;52.344;16.790;2023-03-25T07:09:00;99409.27;;;11.82;78.35
28701;BME280;15877;52.344;16.790;2023-03-25T07:11:33;99403.86;;;11.93;78.28
28701;BME280;15877;52.344;16.790;2023-03-25T07:14:06;99405.20;;;12.02;78.28
28701;BME280;15877;52.344;16.790;2023-03-25T07:16:39;99406.48;;;11.96;78.41
28701;BME280;15877;52.344;16.790;2023-03-25T07:19:11;99409.02;;;11.94;78.77
28701;BME280;15877;52.344;16.790;2023-03-25T07:21:43;99410.77;;;12.09;79.01
28701;BME280;15877;52.344;16.790;2023-03-25T07:24:16;99405.36;;;11.99;78.68
28701;BME280;15877;52.344;16.790;2023-03-25T07:26:48;99412.04;;;12.17;78.55
28701;BME280;15877;52.344;16.790;2023-03-25T07:29:23;99409.19;;;12.04;79.00
28701;BME280;15877;52.344;16.790;2023-03-25T07:31:55;99404.57;;;12.05;79.63
28701;BME280;15877;52.344;16.790;2023-03-25T07:34:28;99405.59;;;12.23;78.39
28701;BME280;15877;52.344;16.790;2023-03-25T07:37:01;99403.04;;;12.27;78.07
28701;BME280;15877;52.344;16.790;2023-03-25T07:39:34;99401.55;;;12.12;78.70
28701;BME280;15877;52.344;16.790;2023-03-25T07:42:07;99398.51;;;12.28;78.96
28701;BME280;15877;52.344;16.790;2023-03-25T07:45:06;99405.02;;;12.29;80.57
28701;BME280;15877;52.344;16.790;2023-03-25T07:47:40;99399.68;;;12.38;80.43
28701;BME280;15877;52.344;16.790;2023-03-25T07:50:12;99401.00;;;12.53;79.26
28701;BME280;15877;52.344;16.790;2023-03-25T07:52:45;99406.59;;;12.44;79.51
28701;BME280;15877;52.344;16.790;2023-03-25T07:55:18;99410.23;;;12.47;80.35
28701;BME280;15877;52.344;16.790;2023-03-25T07:57:51;99411.30;;;12.34;80.42
28701;BME280;15877;52.344;16.790;2023-03-25T08:00:23;99408.51;;;12.48;80.12
28701;BME280;15877;52.344;16.790;2023-03-25T08:02:56;99402.02;;;12.29;80.59
28701;BME280;15877;52.344;16.790;2023-03-25T08:05:29;99405.02;;;12.29;80.80
28701;BME280;15877;52.344;16.790;2023-03-25T08:08:05;99406.40;;;12.60;80.41
28701;BME280;15877;52.344;16.790;2023-03-25T08:10:37;99389.64;;;12.39;80.21
28701;BME280;15877;52.344;16.790;2023-03-25T08:13:10;99401.92;;;12.64;80.28
28701;BME280;15877;52.344;16.790;2023-03-25T08:15:42;99390.88;;;12.59;79.54
28701;BME280;15877;52.344;16.790;2023-03-25T08:18:15;99396.72;;;12.75;80.09
28701;BME280;15877;52.344;16.790;2023-03-25T08:20:48;99396.92;;;12.82;80.41
28701;BME280;15877;52.344;16.790;2023-03-25T08:23:22;99401.83;;;12.94;79.35
28701;BME280;15877;52.344;16.790;2023-03-25T08:25:56;99413.64;;;13.11;77.74
28701;BME280;15877;52.344;16.790;2023-03-25T08:28:28;99411.93;;;13.02;76.27
28701;BME280;15877;52.344;16.790;2023-03-25T08:31:04;99419.63;;;13.05;74.75
28701;BME280;15877;52.344;16.790;2023-03-25T08:33:36;99404.29;;;13.33;73.39
28701;BME280;15877;52.344;16.790;2023-03-25T08:36:11;99408.77;;;13.47;73.60
28701;BME280;15877;52.344;16.790;2023-03-25T08:38:50;99407.54;;;13.62;72.45
28701;BME280;15877;52.344;16.790;2023-03-25T08:41:23;99412.41;;;13.74;71.44
28701;BME280;15877;52.344;16.790;2023-03-25T08:43:56;99414.05;;;13.55;71.99
28701;BME280;15877;52.344;16.790;2023-03-25T08:46:28;99405.27;;;13.56;72.26
28701;BME280;15877;52.344;16.790;2023-03-25T08:49:01;99417.80;;;13.40;71.04
28701;BME280;15877;52.344;16.790;2023-03-25T08:51:34;99422.00;;;13.11;70.16
28701;BME280;15877;52.344;16.790;2023-03-25T08:54:07;99411.55;;;13.29;71.54
28701;BME280;15877;52.344;16.790;2023-03-25T08:56:39;99406.40;;;13.41;70.15
28701;BME280;15877;52.344;16.790;2023-03-25T08:59:12;99401.13;;;13.55;70.07
28701;BME280;15877;52.344;16.790;2023-03-25T09:01:45;99402.44;;;13.73;69.99
28701;BME280;15877;52.344;16.790;2023-03-25T09:04:17;99400.58;;;13.67;69.46
28701;BME280;15877;52.344;16.790;2023-03-25T09:06:50;99399.39;;;13.52;69.82
28701;BME280;15877;52.344;16.790;2023-03-25T09:09:43;99396.59;;;13.64;69.66
28701;BME280;15877;52.344;16.790;2023-03-25T09:12:15;99400.61;;;13.33;70.02
28701;BME280;15877;52.344;16.790;2023-03-25T09:14:48;99401.88;;;13.38;70.28
28701;BME280;15877;52.344;16.790;2023-03-25T09:17:20;99404.20;;;13.35;69.76
28701;BME280;15877;52.344;16.790;2023-03-25T09:19:53;99406.81;;;13.62;69.06
28701;BME280;15877;52.344;16.790;2023-03-25T09:22:28;99412.23;;;13.76;68.24
28701;BME280;15877;52.344;16.790;2023-03-25T09:25:01;99411.50;;;13.55;68.20
28701;BME280;15877;52.344;16.790;2023-03-25T09:27:33;99411.76;;;13.38;68.89
28701;BME280;15877;52.344;16.790;2023-03-25T09:30:08;99400.06;;;13.60;68.45
28701;BME280;15877;52.344;16.790;2023-03-25T09:32:39;99409.31;;;13.81;67.71
28701;BME280;15877;52.344;16.790;2023-03-25T09:35:11;99411.77;;;13.95;67.59
28701;BME280;15877;52.344;16.790;2023-03-25T09:37:44;99412.83;;;14.12;66.14
28701;BME280;15877;52.344;16.790;2023-03-25T09:40:23;99412.61;;;14.00;65.65
28701;BME280;15877;52.344;16.790;2023-03-25T09:43:02;99406.07;;;14.18;66.01
28701;BME280;15877;52.344;16.790;2023-03-25T09:45:38;99410.48;;;14.34;64.67
28701;BME280;15877;52.344;16.790;2023-03-25T09:48:25;99413.48;;;14.10;64.19
28701;BME280;15877;52.344;16.790;2023-03-25T09:51:04;99420.67;;;13.97;64.43
28701;BME280;15877;52.344;16.790;2023-03-25T09:53:41;99412.91;;;14.03;64.38
28701;BME280;15877;52.344;16.790;2023-03-25T09:56:18;99412.08;;;14.14;64.52
28701;BME280;15877;52.344;16.790;2023-03-25T09:58:54;99406.33;;;13.95;65.81
28701;BME280;15877;52.344;16.790;2023-03-25T10:01:35;99397.60;;;14.00;66.51
28701;BME280;15877;52.344;16.790;2023-03-25T10:04:40;99405.64;;;14.22;65.97
28701;BME280;15877;52.344;16.790;2023-03-25T10:07:37;99401.98;;;14.40;65.76
28701;BME280;15877;52.344;16.790;2023-03-25T10:10:18;99396.15;;;14.11;65.81
28701;BME280;15877;52.344;16.790;2023-03-25T10:13:00;99400.52;;;13.94;65.42
28701;BME280;15877;52.344;16.790;2023-03-25T10:15:38;99396.15;;;13.93;64.57
28701;BME280;15877;52.344;16.790;2023-03-25T10:21:13;99393.08;;;14.07;62.82
28701;BME280;15877;52.344;16.790;2023-03-25T10:23:49;99394.42;;;14.16;63.70
28701;BME280;15877;52.344;16.790;2023-03-25T10:26:29;99389.79;;;14.17;64.46
28701;BME280;15877;52.344;16.790;2023-03-25T10:29:05;99391.80;;;14.26;66.24
28701;BME280;15877;52.344;16.790;2023-03-25T10:31:48;99392.66;;;14.18;66.29
28701;BME280;15877;52.344;16.790;2023-03-25T10:34:28;99391.19;;;14.04;66.91
28701;BME280;15877;52.344;16.790;2023-03-25T10:37:10;99394.38;;;13.93;68.13
28701;BME280;15877;52.344;16.790;2023-03-25T10:39:44;99405.13;;;13.53;68.88
28701;BME280;15877;52.344;16.790;2023-03-25T10:42:23;99413.08;;;13.44;69.00
28701;BME280;15877;52.344;16.790;2023-03-25T10:44:57;99423.75;;;13.43;69.82
28701;BME280;15877;52.344;16.790;2023-03-25T10:47:33;99432.59;;;13.29;70.76
28701;BME280;15877;52.344;16.790;2023-03-25T10:50:15;99428.90;;;13.38;71.09
28701;BME280;15877;52.344;16.790;2023-03-25T10:52:49;99420.15;;;13.60;68.45
28701;BME280;15877;52.344;16.790;2023-03-25T10:55:24;99409.73;;;13.27;69.27
28701;BME280;15877;52.344;16.790;2023-03-25T10:58:00;99409.11;;;13.08;71.43
28701;BME280;15877;52.344;16.790;2023-03-25T11:00:33;99412.01;;;12.98;72.07
28701;BME280;15877;52.344;16.790;2023-03-25T11:03:07;99404.85;;;12.76;72.06
28701;BME280;15877;52.344;16.790;2023-03-25T11:05:42;99420.65;;;12.52;72.03
28701;BME280;15877;52.344;16.790;2023-03-25T11:08:16;99426.05;;;12.13;73.71
28701;BME280;15877;52.344;16.790;2023-03-25T11:10:55;99433.50;;;11.83;75.73
28701;BME280;15877;52.344;16.790;2023-03-25T11:13:31;99432.48;;;11.85;77.00
28701;BME280;15877;52.344;16.790;2023-03-25T11:16:09;99439.40;;;12.05;76.04
28701;BME280;15877;52.344;16.790;2023-03-25T11:18:43;99443.04;;;11.77;76.79
28701;BME280;15877;52.344;16.790;2023-03-25T11:21:18;99444.84;;;11.40;78.47
28701;BME280;15877;52.344;16.790;2023-03-25T11:23:52;99444.34;;;11.27;80.03
28701;BME280;15877;52.344;16.790;2023-03-25T11:26:27;99434.84;;;11.44;80.38
28701;BME280;15877;52.344;16.790;2023-03-25T11:29:06;99413.13;;;11.34;80.76
28701;BME280;15877;52.344;16.790;2023-03-25T11:31:41;99419.24;;;11.66;80.68
28701;BME280;15877;52.344;16.790;2023-03-25T11:34:18;99417.84;;;11.73;80.34
28701;BME280;15877;52.344;16.790;2023-03-25T11:36:54;99408.38;;;11.85;80.58
28701;BME280;15877;52.344;16.790;2023-03-25T11:39:31;99409.81;;;11.87;80.87
28701;BME280;15877;52.344;16.790;2023-03-25T11:42:18;99404.33;;;12.08;80.54
28701;BME280;15877;52.344;16.790;2023-03-25T11:44:55;99385.90;;;12.39;78.49
28701;BME280;15877;52.344;16.790;2023-03-25T11:47:33;99394.45;;;12.61;79.51
28701;BME280;15877;52.344;16.790;2023-03-25T11:50:16;99384.91;;;13.02;79.09
28701;BME280;15877;52.344;16.790;2023-03-25T11:52:53;99383.02;;;13.30;78.37
28701;BME280;15877;52.344;16.790;2023-03-25T11:55:29;99381.06;;;13.38;75.85
28701;BME280;15877;52.344;16.790;2023-03-25T11:58:02;99387.50;;;13.30;73.75
28701;BME280;15877;52.344;16.790;2023-03-25T12:00:40;99384.09;;;13.41;73.91
28701;BME280;15877;52.344;16.790;2023-03-25T12:03:19;99378.42;;;13.63;72.92
28701;BME280;15877;52.344;16.790;2023-03-25T12:06:03;99366.66;;;13.98;72.29
28701;BME280;15877;52.344;16.790;2023-03-25T12:08:47;99366.27;;;14.15;72.30
28701;BME280;15877;52.344;16.790;2023-03-25T12:11:22;99369.05;;;14.16;70.70
28701;BME280;15877;52.344;16.790;2023-03-25T12:14:14;99352.64;;;14.04;70.28
28701;BME280;15877;52.344;16.790;2023-03-25T12:16:55;99359.67;;;14.39;71.40
28701;BME280;15877;52.344;16.790;2023-03-25T12:19:40;99360.69;;;14.25;70.94
28701;BME280;15877;52.344;16.790;2023-03-25T12:22:26;99352.27;;;14.36;68.45
28701;BME280;15877;52.344;16.790;2023-03-25T12:25:13;99355.03;;;14.61;68.29
28701;BME280;15877;52.344;16.790;2023-03-25T12:27:58;99355.02;;;14.77;69.61
28701;BME280;15877;52.344;16.790;2023-03-25T12:30:38;99357.59;;;14.82;68.99
28701;BME280;15877;52.344;16.790;2023-03-25T12:33:26;99340.78;;;14.90;65.37
28701;BME280;15877;52.344;16.790;2023-03-25T12:36:11;99352.38;;;15.13;65.76
28701;BME280;15877;52.344;16.790;2023-03-25T12:38:55;99343.64;;;15.04;65.26
28701;BME280;15877;52.344;16.790;2023-03-25T12:41:38;99337.95;;;15.22;64.01
28701;BME280;15877;52.344;16.790;2023-03-25T12:44:33;99334.86;;;15.38;63.59
28701;BME280;15877;52.344;16.790;2023-03-25T12:47:16;99335.73;;;15.44;62.89
28701;BME280;15877;52.344;16.790;2023-03-25T12:50:02;99321.48;;;15.55;61.67
28701;BME280;15877;52.344;16.790;2023-03-25T12:52:43;99331.79;;;15.71;61.05
28701;BME280;15877;52.344;16.790;2023-03-25T12:55:37;99325.73;;;15.65;60.65
28701;BME280;15877;52.344;16.790;2023-03-25T12:58:34;99323.14;;;15.57;59.16
28701;BME280;15877;52.344;16.790;2023-03-25T13:01:20;99314.67;;;15.85;58.09
28701;BME280;15877;52.344;16.790;2023-03-25T13:04:20;99311.34;;;15.78;58.89
28701;BME280;15877;52.344;16.790;2023-03-25T13:06:59;99306.67;;;15.76;59.78
28701;BME280;15877;52.344;16.790;2023-03-25T13:09:47;99305.50;;;15.59;60.77
28701;BME280;15877;52.344;16.790;2023-03-25T13:12:29;99317.36;;;15.25;60.62
28701;BME280;15877;52.344;16.790;2023-03-25T13:15:10;99357.92;;;14.58;61.99
28701;BME280;15877;52.344;16.790;2023-03-25T13:17:58;99355.51;;;14.05;63.49
28701;BME280;15877;52.344;16.790;2023-03-25T13:20:37;99365.41;;;13.16;66.86
28701;BME280;15877;52.344;16.790;2023-03-25T13:23:14;99353.38;;;13.15;68.16
28701;BME280;15877;52.344;16.790;2023-03-25T13:25:49;99357.26;;;13.68;67.68
28701;BME280;15877;52.344;16.790;2023-03-25T13:28:30;99353.59;;;13.59;68.64
28701;BME280;15877;52.344;16.790;2023-03-25T13:31:11;99347.83;;;13.80;69.34
28701;BME280;15877;52.344;16.790;2023-03-25T13:33:49;99353.45;;;14.03;70.65
28701;BME280;15877;52.344;16.790;2023-03-25T13:36:28;99346.35;;;13.85;70.05
28701;BME280;15877;52.344;16.790;2023-03-25T13:39:04;99342.80;;;13.89;71.35
28701;BME280;15877;52.344;16.790;2023-03-25T13:41:41;99342.85;;;14.02;72.64
28701;BME280;15877;52.344;16.790;2023-03-25T13:44:17;99337.48;;;14.13;69.53
28701;BME280;15877;52.344;16.790;2023-03-25T13:46:54;99336.70;;;14.20;70.22
28701;BME280;15877;52.344;16.790;2023-03-25T13:49:33;99340.84;;;14.45;70.48